Time;durP1;ratioP1;P1;durP2;ratioP2;P2;SDS_P1;SDS_P2;PMS_P1;PMS_P2;Temp;Humidity;BMP_temperature;BMP_pressure;BME280_temperature;BME280_humidity;BME280_pressure;Samples;Min_cycle;Max_cycle;Signal;HPM_P1;HPM_P2
2022/11/06 00:01:59;;;;;;;8.02;4.20;;;9.80;99.90;;;;;;5059943;28;20033;-83
2022/11/06 00:04:31;;;;;;;7.70;4.15;;;9.70;99.90;;;;;;5060599;28;20078;-83
2022/11/06 00:06:57;;;;;;;6.72;3.75;;;9.70;99.90;;;;;;5066615;28;20017;-83
2022/11/06 00:09:24;;;;;;;6.45;3.92;;;9.60;99.90;;;;;;5055542;28;20071;-84
2022/11/06 00:11:51;;;;;;;6.93;4.50;;;9.60;99.90;;;;;;5067872;28;20344;-83
2022/11/06 00:14:18;;;;;;;6.82;4.00;;;9.60;99.90;;;;;;5060260;28;20074;-83
2022/11/06 00:16:45;;;;;;;7.45;4.18;;;9.60;99.90;;;;;;5057065;28;20051;-83
2022/11/06 00:19:14;;;;;;;8.07;4.40;;;9.60;99.90;;;;;;5045940;28;20024;-83
2022/11/06 00:21:59;;;;;;;7.15;4.13;;;9.60;99.90;;;;;;5064661;28;20095;-82
2022/11/06 00:24:29;;;;;;;6.80;3.83;;;9.70;99.90;;;;;;5062431;28;20037;-83
2022/11/06 00:26:55;;;;;;;6.72;4.03;;;9.70;99.90;;;;;;5060177;28;20057;-82
2022/11/06 00:29:23;;;;;;;7.35;4.35;;;9.70;99.90;;;;;;5059833;28;20075;-84
2022/11/06 00:31:49;;;;;;;7.97;4.22;;;9.80;99.90;;;;;;5066829;28;20024;-82
2022/11/06 00:34:18;;;;;;;7.20;3.90;;;9.80;99.90;;;;;;5064454;28;20016;-82
2022/11/06 00:36:43;;;;;;;6.38;4.13;;;9.80;99.90;;;;;;5057816;28;20017;-83
2022/11/06 00:39:10;;;;;;;7.57;3.67;;;9.80;99.90;;;;;;5054707;28;20024;-82
2022/11/06 00:41:37;;;;;;;7.75;4.20;;;9.90;99.90;;;;;;5063524;28;20024;-82
2022/11/06 00:44:03;;;;;;;6.63;4.10;;;9.80;99.90;;;;;;5057105;28;20020;-82
2022/11/06 00:46:29;;;;;;;7.85;4.00;;;9.80;99.90;;;;;;5059134;28;20392;-83
2022/11/06 00:48:55;;;;;;;7.32;3.70;;;9.80;99.90;;;;;;5039549;28;20013;-83
2022/11/06 00:51:28;;;;;;;11.93;4.43;;;9.80;99.90;;;;;;5066878;28;20035;-81
2022/11/06 00:53:57;;;;;;;7.43;3.92;;;9.80;99.90;;;;;;5060214;28;20033;-81
2022/11/06 00:56:29;;;;;;;7.70;3.90;;;9.80;99.90;;;;;;5045457;28;20476;-82
2022/11/06 00:58:58;;;;;;;7.72;4.65;;;9.70;99.90;;;;;;5059727;28;20025;-83
2022/11/06 01:01:36;;;;;;;6.55;3.67;;;9.70;99.90;;;;;;5039328;28;20016;-84
2022/11/06 01:04:20;;;;;;;8.35;4.82;;;9.70;99.90;;;;;;5034916;28;20448;-82
2022/11/06 01:06:49;;;;;;;5.97;3.47;;;9.70;99.90;;;;;;5035830;28;20047;-82
2022/11/06 01:09:17;;;;;;;4.20;2.92;;;9.70;99.90;;;;;;5062794;28;20411;-82
2022/11/06 01:11:49;;;;;;;8.68;3.35;;;9.70;99.90;;;;;;5066025;28;20021;-82
2022/11/06 01:14:16;;;;;;;8.85;3.50;;;9.70;99.90;;;;;;5034674;28;20099;-83
2022/11/06 01:16:42;;;;;;;6.40;3.40;;;9.70;99.90;;;;;;5047743;28;20082;-83
2022/11/06 01:19:11;;;;;;;8.15;4.07;;;9.60;99.90;;;;;;5054499;28;20021;-82
2022/11/06 01:21:40;;;;;;;7.28;3.45;;;9.60;99.90;;;;;;5041460;28;20020;-83
2022/11/06 01:24:10;;;;;;;5.88;3.38;;;9.60;99.90;;;;;;5044280;28;20025;-83
2022/11/06 01:26:39;;;;;;;8.80;3.83;;;9.60;99.90;;;;;;5039549;28;20017;-83
2022/11/06 01:29:07;;;;;;;5.70;3.70;;;9.60;99.90;;;;;;5052076;28;20369;-82
2022/11/06 01:31:33;;;;;;;4.72;3.00;;;9.60;99.90;;;;;;5035033;28;20299;-83
2022/11/06 01:34:01;;;;;;;5.13;3.00;;;9.50;99.90;;;;;;5047262;28;20025;-83
2022/11/06 01:36:27;;;;;;;6.35;3.15;;;9.60;99.90;;;;;;5045460;28;20337;-83
2022/11/06 01:38:54;;;;;;;5.18;2.83;;;9.60;99.90;;;;;;5037676;28;20021;-82
2022/11/06 01:41:27;;;;;;;7.43;3.45;;;9.60;99.90;;;;;;5054509;28;20040;-83
2022/11/06 01:43:58;;;;;;;8.10;3.47;;;9.60;99.90;;;;;;5041694;28;20150;-82
2022/11/06 01:46:32;;;;;;;7.32;2.90;;;9.60;99.90;;;;;;5050009;28;20059;-83
2022/11/06 01:49:01;;;;;;;5.78;3.00;;;9.50;99.90;;;;;;5074699;28;20451;-82
2022/11/06 01:51:29;;;;;;;4.90;2.53;;;9.50;99.90;;;;;;5072817;28;20048;-82
2022/11/06 01:53:55;;;;;;;6.38;3.13;;;9.50;99.90;;;;;;5062288;28;20012;-82
2022/11/06 01:56:22;;;;;;;3.92;2.63;;;9.50;99.90;;;;;;5070603;28;20037;-83
2022/11/06 01:58:51;;;;;;;5.28;2.83;;;9.50;99.90;;;;;;5059031;28;20070;-83
2022/11/06 02:01:16;;;;;;;6.15;2.55;;;9.50;99.90;;;;;;5072085;28;20521;-83
2022/11/06 02:03:53;;;;;;;5.22;2.33;;;9.50;99.90;;;;;;5077176;28;20012;-82
2022/11/06 02:06:19;;;;;;;5.68;2.47;;;9.50;99.90;;;;;;5061744;28;20090;-85
2022/11/06 02:08:45;;;;;;;5.40;2.70;;;9.50;99.90;;;;;;5055564;28;20038;-82
2022/11/06 02:11:11;;;;;;;7.85;2.83;;;9.50;99.90;;;;;;5074516;28;20039;-82
2022/11/06 02:13:51;;;;;;;7.07;2.70;;;9.50;99.90;;;;;;5060518;28;20017;-82
2022/11/06 02:16:45;;;;;;;5.97;2.60;;;9.50;99.90;;;;;;5053693;28;20035;-83
2022/11/06 02:19:53;;;;;;;6.38;2.70;;;9.60;99.90;;;;;;5082480;28;20048;-83
2022/11/06 02:22:38;;;;;;;8.10;2.83;;;9.60;99.90;;;;;;5076258;28;20017;-82
2022/11/06 02:25:15;;;;;;;5.72;2.30;;;9.60;99.90;;;;;;5029697;28;20052;-82
2022/11/06 02:27:49;;;;;;;7.05;2.90;;;9.70;99.90;;;;;;5062203;28;20024;-83
2022/11/06 02:30:15;;;;;;;3.63;1.88;;;9.70;99.90;;;;;;5062714;28;20031;-83
2022/11/06 02:32:58;;;;;;;5.15;2.70;;;9.60;99.90;;;;;;5081928;28;20023;-83
2022/11/06 02:35:46;;;;;;;7.67;2.40;;;9.60;99.90;;;;;;5083994;28;20024;-83
2022/11/06 02:38:46;;;;;;;6.32;2.33;;;9.60;99.90;;;;;;5057742;28;20017;-82
2022/11/06 02:41:27;;;;;;;5.70;2.50;;;9.60;99.90;;;;;;5052091;28;20097;-83
2022/11/06 02:43:55;;;;;;;7.35;2.90;;;9.60;99.90;;;;;;5057915;28;20020;-83
2022/11/06 02:46:47;;;;;;;5.35;2.25;;;9.60;99.90;;;;;;5064748;28;20066;-83
2022/11/06 02:49:38;;;;;;;6.63;2.25;;;9.60;99.90;;;;;;5057221;28;20083;-83
2022/11/06 02:52:09;;;;;;;5.68;1.98;;;9.70;99.90;;;;;;5054111;28;20363;-82
2022/11/06 02:54:39;;;;;;;6.35;2.35;;;9.70;99.90;;;;;;5059492;28;20099;-83
2022/11/06 02:57:09;;;;;;;7.40;2.70;;;9.70;99.90;;;;;;5060790;28;20028;-83
2022/11/06 03:00:03;;;;;;;4.18;2.33;;;9.70;99.90;;;;;;5067572;28;20051;-84
2022/11/06 03:02:39;;;;;;;7.10;2.38;;;9.70;99.90;;;;;;5066126;28;20016;-82
2022/11/06 03:05:13;;;;;;;7.90;2.30;;;9.80;99.90;;;;;;5067878;28;20017;-83
2022/11/06 03:07:42;;;;;;;4.97;1.90;;;9.80;99.90;;;;;;5054646;28;20036;-83
2022/11/06 03:10:08;;;;;;;4.07;1.70;;;9.80;99.90;;;;;;5055687;28;20032;-82
2022/11/06 03:13:00;;;;;;;5.60;2.03;;;9.80;99.90;;;;;;5054183;28;20043;-81
2022/11/06 03:15:36;;;;;;;6.93;1.77;;;9.80;99.90;;;;;;5069909;28;20025;-82
2022/11/06 03:18:30;;;;;;;4.53;2.10;;;9.80;99.90;;;;;;5072759;28;20073;-81
2022/11/06 03:21:10;;;;;;;11.15;2.88;;;9.80;99.90;;;;;;5072038;28;20445;-82
2022/11/06 03:23:47;;;;;;;6.38;2.30;;;9.90;99.90;;;;;;5064420;28;20464;-81
2022/11/06 03:26:34;;;;;;;4.20;1.90;;;9.90;99.90;;;;;;5068528;28;20017;-83
2022/11/06 03:29:14;;;;;;;4.50;2.00;;;9.90;99.90;;;;;;5054232;28;20021;-83
2022/11/06 03:31:59;;;;;;;7.50;2.28;;;9.90;99.90;;;;;;5063976;28;20032;-82
2022/11/06 03:34:35;;;;;;;5.80;2.15;;;9.90;99.90;;;;;;5059442;28;20105;-82
2022/11/06 03:37:09;;;;;;;5.30;1.60;;;9.90;99.90;;;;;;5072430;28;20027;-83
2022/11/06 03:39:40;;;;;;;6.45;2.28;;;9.90;99.90;;;;;;5066212;28;20399;-82
2022/11/06 03:42:11;;;;;;;6.03;1.67;;;9.90;99.90;;;;;;5073248;28;20023;-82
2022/11/06 03:44:45;;;;;;;5.00;1.92;;;9.90;99.90;;;;;;5072373;28;20020;-82
2022/11/06 03:47:29;;;;;;;4.80;1.63;;;10.00;99.90;;;;;;5064736;28;20045;-82
2022/11/06 03:50:23;;;;;;;6.60;1.90;;;10.00;99.90;;;;;;5053793;28;20029;-83
2022/11/06 03:52:52;;;;;;;;;;;10.00;99.90;;;;;;5053930;28;20021;-82
2022/11/06 03:55:25;;;;;;;4.22;1.50;;;10.00;99.90;;;;;;5065135;28;19907;-83
2022/11/06 03:57:56;;;;;;;4.68;1.50;;;10.00;99.90;;;;;;5062061;28;20048;-82
2022/11/06 04:00:22;;;;;;;5.70;1.85;;;10.00;99.90;;;;;;5053206;28;20021;-83
2022/11/06 04:03:04;;;;;;;4.30;2.20;;;10.00;99.90;;;;;;5060549;28;20027;-81
2022/11/06 04:05:49;;;;;;;4.80;1.20;;;10.00;99.90;;;;;;5052995;28;20470;-82
2022/11/06 04:14:01;;;;;;;4.60;1.65;;;10.10;99.90;;;;;;5064165;28;20027;-81
2022/11/06 04:16:40;;;;;;;4.63;2.17;;;10.10;99.90;;;;;;5067462;28;20415;-81
2022/11/06 04:19:15;;;;;;;4.35;1.50;;;10.10;99.90;;;;;;5049423;28;20048;-82
2022/11/06 04:22:15;;;;;;;4.30;1.50;;;10.10;99.90;;;;;;5061170;28;20520;-81
2022/11/06 04:27:52;;;;;;;4.85;1.52;;;10.10;99.90;;;;;;5030801;28;20483;-81
2022/11/06 04:30:18;;;;;;;6.75;1.92;;;10.20;99.90;;;;;;5052617;28;20028;-82
2022/11/06 04:32:50;;;;;;;3.13;1.55;;;10.20;99.90;;;;;;5052577;28;20017;-82
2022/11/06 04:35:21;;;;;;;5.60;1.88;;;10.20;99.90;;;;;;5062166;28;20095;-83
2022/11/06 04:37:53;;;;;;;4.18;1.80;;;10.20;99.90;;;;;;5063637;28;20033;-82
2022/11/06 04:40:30;;;;;;;6.30;1.50;;;10.30;99.90;;;;;;5056183;28;20036;-83
2022/11/06 04:43:06;;;;;;;2.85;1.20;;;10.30;99.90;;;;;;5059739;28;20016;-82
2022/11/06 04:45:40;;;;;;;5.13;1.65;;;10.30;99.90;;;;;;5053906;28;20075;-81
2022/11/06 04:48:07;;;;;;;3.58;1.27;;;10.30;99.90;;;;;;5051937;28;20017;-81
2022/11/06 04:50:37;;;;;;;4.90;1.50;;;10.30;99.90;;;;;;5054725;28;20119;-81
2022/11/06 04:53:04;;;;;;;6.70;1.60;;;10.30;99.90;;;;;;5060255;28;20013;-83
2022/11/06 04:55:57;;;;;;;3.53;1.38;;;10.20;99.90;;;;;;5071773;28;20048;-81
2022/11/06 04:58:22;;;;;;;3.33;1.20;;;10.30;99.90;;;;;;5011067;28;20440;-82
2022/11/06 05:00:49;;;;;;;4.85;1.40;;;10.30;99.90;;;;;;5053714;28;20053;-81
2022/11/06 05:03:15;;;;;;;4.70;1.40;;;10.30;99.90;;;;;;5064936;28;20348;-82
2022/11/06 05:05:49;;;;;;;6.63;1.58;;;10.30;99.90;;;;;;5071720;28;20029;-81
2022/11/06 05:08:17;;;;;;;4.10;1.50;;;10.20;99.90;;;;;;5060440;28;20507;-82
2022/11/06 05:10:43;;;;;;;2.70;1.02;;;10.20;99.90;;;;;;5062674;28;20028;-82
2022/11/06 05:13:09;;;;;;;5.18;1.63;;;10.20;99.90;;;;;;5066501;28;20512;-81
2022/11/06 05:15:35;;;;;;;3.53;1.25;;;10.20;99.90;;;;;;5071823;28;20012;-81
2022/11/06 05:18:01;;;;;;;5.38;1.75;;;10.10;99.90;;;;;;5067831;28;20028;-81
2022/11/06 05:20:27;;;;;;;3.72;1.25;;;10.10;99.90;;;;;;5063901;28;20032;-81
2022/11/06 05:23:02;;;;;;;2.38;1.02;;;10.20;99.90;;;;;;5060889;28;20017;-81
2022/11/06 05:25:36;;;;;;;7.32;1.50;;;10.20;99.90;;;;;;5051630;28;20017;-81
2022/11/06 05:28:05;;;;;;;8.07;1.70;;;10.20;99.90;;;;;;5052930;28;20405;-81
2022/11/06 05:30:33;;;;;;;3.22;1.45;;;10.20;99.90;;;;;;5052922;28;20429;-82
2022/11/06 05:32:58;;;;;;;2.88;1.40;;;10.20;99.90;;;;;;5052931;28;20066;-81
2022/11/06 05:35:24;;;;;;;5.47;2.05;;;10.30;99.90;;;;;;5051379;28;20032;-82
2022/11/06 05:37:50;;;;;;;6.95;1.65;;;10.30;99.90;;;;;;5053893;28;20049;-81
2022/11/06 05:40:16;;;;;;;6.97;1.67;;;10.40;99.90;;;;;;5059002;28;20028;-82
2022/11/06 05:42:43;;;;;;;3.63;1.58;;;10.30;99.90;;;;;;5063341;28;20013;-81
2022/11/06 05:45:09;;;;;;;3.65;1.58;;;10.30;99.90;;;;;;5051013;28;20159;-82
2022/11/06 05:47:38;;;;;;;4.30;1.70;;;10.40;99.90;;;;;;5058425;28;20024;-81
2022/11/06 05:50:06;;;;;;;4.03;1.33;;;10.30;99.90;;;;;;5069086;28;20027;-81
2022/11/06 05:52:37;;;;;;;3.05;1.38;;;10.40;99.90;;;;;;5061365;28;20474;-82
2022/11/06 05:55:04;;;;;;;4.38;1.50;;;10.40;99.90;;;;;;5070971;28;20101;-81
2022/11/06 05:57:30;;;;;;;5.68;1.60;;;10.30;99.90;;;;;;5062233;28;20083;-83
2022/11/06 05:59:55;;;;;;;5.38;1.70;;;10.30;99.90;;;;;;5065206;28;20032;-81
2022/11/06 06:02:23;;;;;;;5.60;1.33;;;10.40;99.90;;;;;;5060838;28;20028;-81
2022/11/06 06:04:49;;;;;;;2.97;1.40;;;10.30;99.90;;;;;;5059006;28;20028;-81
2022/11/06 06:07:14;;;;;;;8.07;2.28;;;10.30;99.90;;;;;;5066457;28;20021;-80
2022/11/06 06:09:40;;;;;;;4.68;1.70;;;10.30;99.90;;;;;;5055954;28;20038;-81
2022/11/06 06:12:09;;;;;;;5.15;1.75;;;10.30;99.90;;;;;;5044615;28;20375;-81
2022/11/06 06:14:35;;;;;;;3.00;1.40;;;10.30;99.90;;;;;;5055237;28;20025;-81
2022/11/06 06:17:00;;;;;;;4.22;1.63;;;10.30;99.90;;;;;;5056338;28;20025;-82
2022/11/06 06:19:26;;;;;;;4.90;1.60;;;10.20;99.90;;;;;;5067013;28;20437;-81
2022/11/06 06:21:52;;;;;;;4.97;2.05;;;10.20;99.90;;;;;;5062509;28;20103;-81
2022/11/06 06:24:18;;;;;;;6.18;2.13;;;10.20;99.90;;;;;;5051141;28;20044;-81
2022/11/06 06:26:43;;;;;;;4.90;1.70;;;10.20;99.90;;;;;;5047229;28;20025;-81
2022/11/06 06:29:09;;;;;;;3.90;1.38;;;10.20;99.90;;;;;;5058619;28;20123;-82
2022/11/06 06:31:35;;;;;;;4.55;1.50;;;10.30;99.90;;;;;;5061154;28;20089;-81
2022/11/06 06:34:00;;;;;;;6.45;1.48;;;10.20;99.90;;;;;;5074102;28;20035;-82
2022/11/06 06:36:26;;;;;;;4.75;1.83;;;10.20;99.90;;;;;;5074278;28;20016;-82
2022/11/06 06:38:55;;;;;;;4.47;2.10;;;10.20;99.90;;;;;;5067138;28;20021;-81
2022/11/06 06:41:23;;;;;;;4.57;1.58;;;10.20;99.90;;;;;;5073948;28;20047;-81
2022/11/06 06:43:49;;;;;;;5.00;1.65;;;10.20;99.90;;;;;;5073649;28;20008;-81
2022/11/06 06:46:15;;;;;;;2.83;1.50;;;10.20;99.90;;;;;;5063528;28;20483;-82
2022/11/06 06:48:40;;;;;;;3.08;1.60;;;10.20;99.90;;;;;;5066962;28;20024;-82
2022/11/06 06:51:06;;;;;;;4.60;1.67;;;10.20;99.90;;;;;;5054862;28;20036;-81
2022/11/06 06:53:33;;;;;;;5.25;1.95;;;10.20;99.90;;;;;;5057527;28;20012;-82
2022/11/06 06:56:00;;;;;;;8.13;2.22;;;10.30;99.90;;;;;;5075023;28;20024;-81
2022/11/06 06:58:27;;;;;;;6.35;2.00;;;10.30;99.90;;;;;;5057359;28;20017;-82
2022/11/06 07:00:53;;;;;;;8.48;2.25;;;10.30;99.90;;;;;;5064445;28;20421;-81
2022/11/06 07:03:19;;;;;;;8.10;2.67;;;10.20;99.90;;;;;;5073457;28;20024;-82
2022/11/06 07:05:48;;;;;;;5.15;1.92;;;10.30;99.90;;;;;;5072188;28;20144;-82
2022/11/06 07:08:14;;;;;;;8.25;2.10;;;10.30;99.90;;;;;;5063214;28;20013;-82
2022/11/06 07:10:42;;;;;;;6.90;1.88;;;10.30;99.90;;;;;;5070096;28;20501;-82
2022/11/06 07:13:10;;;;;;;4.53;1.92;;;10.30;99.90;;;;;;5064718;28;20017;-81
2022/11/06 07:15:41;;;;;;;7.10;1.63;;;10.30;99.90;;;;;;5056252;28;20017;-82
2022/11/06 07:18:15;;;;;;;5.03;1.63;;;10.30;99.90;;;;;;5066330;28;20028;-83
2022/11/06 07:20:46;;;;;;;3.95;2.03;;;10.40;99.90;;;;;;5052889;28;20112;-83
2022/11/06 07:23:15;;;;;;;7.50;2.03;;;10.30;99.90;;;;;;5064888;28;20456;-82
2022/11/06 07:25:43;;;;;;;7.10;2.05;;;10.40;99.90;;;;;;5063241;28;20103;-82
2022/11/06 07:28:13;;;;;;;4.18;1.70;;;10.40;99.90;;;;;;5054953;28;20132;-81
2022/11/06 07:30:38;;;;;;;5.07;2.15;;;10.50;99.90;;;;;;5054339;28;20032;-82
2022/11/06 07:33:07;;;;;;;6.20;1.90;;;10.50;99.90;;;;;;5071825;28;20005;-82
2022/11/06 07:35:42;;;;;;;4.95;1.85;;;10.50;99.90;;;;;;5056168;28;20400;-83
2022/11/06 07:38:08;;;;;;;5.00;1.33;;;10.60;99.90;;;;;;5064157;28;20021;-82
2022/11/06 07:40:36;;;;;;;6.10;1.80;;;10.60;99.90;;;;;;5065816;28;20028;-82
2022/11/06 07:43:12;;;;;;;5.32;1.80;;;10.70;99.90;;;;;;5060567;28;20447;-82
2022/11/06 07:45:41;;;;;;;4.03;1.70;;;10.70;99.90;;;;;;5051333;28;20041;-82
2022/11/06 07:48:11;;;;;;;4.40;1.52;;;10.70;99.90;;;;;;5054860;28;20024;-82
2022/11/06 07:50:39;;;;;;;5.05;1.40;;;10.70;99.90;;;;;;5066574;28;20570;-82
2022/11/06 07:53:08;;;;;;;4.63;1.60;;;10.70;99.90;;;;;;5069653;28;20099;-82
2022/11/06 07:55:48;;;;;;;4.53;1.45;;;10.70;99.90;;;;;;5061140;28;20017;-82
2022/11/06 07:58:15;;;;;;;4.88;1.48;;;10.80;99.90;;;;;;5053701;28;20036;-84
2022/11/06 08:01:02;;;;;;;6.25;1.70;;;10.80;99.90;;;;;;5071807;28;20051;-82
2022/11/06 08:03:33;;;;;;;5.18;1.60;;;10.80;99.90;;;;;;5064435;28;20523;-81
2022/11/06 08:06:01;;;;;;;6.28;1.92;;;10.80;99.90;;;;;;5051835;28;20055;-83
2022/11/06 08:08:30;;;;;;;6.47;1.60;;;10.90;99.90;;;;;;5059081;28;20048;-81
2022/11/06 08:11:04;;;;;;;5.35;1.50;;;10.90;99.90;;;;;;5071516;28;20036;-83
2022/11/06 08:13:36;;;;;;;5.40;2.13;;;11.00;99.90;;;;;;5051795;28;20472;-81
2022/11/06 08:16:11;;;;;;;7.90;1.70;;;11.00;99.90;;;;;;5067960;28;20352;-81
2022/11/06 08:18:38;;;;;;;4.43;1.45;;;11.00;99.90;;;;;;5070936;28;20146;-83
2022/11/06 08:21:05;;;;;;;3.33;1.30;;;11.10;99.90;;;;;;5071911;28;20066;-82
2022/11/06 08:23:42;;;;;;;4.82;1.35;;;11.20;99.90;;;;;;5069040;28;20451;-82
2022/11/06 08:26:11;;;;;;;7.13;1.90;;;11.30;99.90;;;;;;5058048;28;20017;-83
2022/11/06 08:28:40;;;;;;;4.28;1.33;;;11.30;99.90;;;;;;5059274;28;20491;-81
2022/11/06 08:31:11;;;;;;;4.05;1.80;;;11.40;99.90;;;;;;5053916;28;20052;-81
2022/11/06 08:33:41;;;;;;;3.42;1.48;;;11.50;99.90;;;;;;5051284;28;20035;-83
2022/11/06 08:36:15;;;;;;;4.35;1.25;;;11.60;99.90;;;;;;5069330;28;20033;-82
2022/11/06 08:38:47;;;;;;;5.90;1.88;;;11.60;99.90;;;;;;5053713;28;20055;-82
2022/11/06 08:41:16;;;;;;;3.72;1.42;;;11.70;99.90;;;;;;5072424;28;20050;-83
2022/11/06 08:43:49;;;;;;;4.28;1.60;;;11.60;99.90;;;;;;5065730;28;20009;-83
2022/11/06 08:46:18;;;;;;;4.63;1.48;;;11.60;99.90;;;;;;5052379;28;20539;-82
2022/11/06 08:48:51;;;;;;;2.75;1.33;;;11.60;99.90;;;;;;5070367;28;20025;-83
2022/11/06 08:51:20;;;;;;;4.18;1.40;;;11.60;99.90;;;;;;5058376;28;20079;-84
2022/11/06 08:53:56;;;;;;;4.28;1.20;;;11.70;99.90;;;;;;5070426;28;20027;-82
2022/11/06 08:56:31;;;;;;;6.55;1.50;;;11.70;99.90;;;;;;5054959;28;20017;-82
2022/11/06 08:59:02;;;;;;;4.75;1.55;;;11.80;99.90;;;;;;5070125;28;20024;-82
2022/11/06 09:01:34;;;;;;;4.40;1.40;;;11.70;99.90;;;;;;5067111;28;20021;-81
2022/11/06 09:04:03;;;;;;;4.40;1.40;;;11.70;99.90;;;;;;5044972;28;20098;-82
2022/11/06 09:06:34;;;;;;;5.47;1.50;;;11.70;99.90;;;;;;5067162;28;20044;-81
2022/11/06 09:09:03;;;;;;;3.90;1.25;;;11.80;99.90;;;;;;5063359;28;20021;-82
2022/11/06 09:11:31;;;;;;;4.93;1.42;;;11.70;99.90;;;;;;5058561;28;20443;-82
2022/11/06 09:13:57;;;;;;;7.82;1.52;;;11.70;99.90;;;;;;5062781;28;20020;-82
2022/11/06 09:16:25;;;;;;;4.82;1.50;;;11.70;99.90;;;;;;5063588;28;20044;-82
2022/11/06 09:18:54;;;;;;;6.30;1.40;;;11.60;99.90;;;;;;5064598;28;20024;-82
2022/11/06 09:21:20;;;;;;;4.75;1.60;;;11.70;99.90;;;;;;5063054;28;20024;-82
2022/11/06 09:23:47;;;;;;;4.88;1.40;;;11.70;99.90;;;;;;5049991;28;20516;-82
2022/11/06 09:26:13;;;;;;;4.95;1.40;;;11.80;99.90;;;;;;5054386;28;20055;-82
2022/11/06 09:28:47;;;;;;;5.10;1.35;;;11.90;99.90;;;;;;5069887;28;20024;-81
2022/11/06 09:31:18;;;;;;;8.05;1.60;;;12.00;99.90;;;;;;5062292;28;20074;-81
2022/11/06 09:33:44;;;;;;;8.15;1.50;;;12.10;99.90;;;;;;5065842;28;20021;-81
2022/11/06 09:36:10;;;;;;;3.70;1.55;;;12.20;99.90;;;;;;5032993;28;20033;-82
2022/11/06 09:38:36;;;;;;;3.38;1.30;;;12.20;99.90;;;;;;5057340;28;20028;-82
2022/11/06 09:41:15;;;;;;;5.15;1.52;;;12.20;99.90;;;;;;5052177;28;20021;-82
2022/11/06 09:44:16;;;;;;;3.67;1.50;;;12.20;99.90;;;;;;5043629;28;20029;-82
2022/11/06 09:46:49;;;;;;;3.22;1.10;;;12.20;99.90;;;;;;5054400;28;20041;-82
2022/11/06 09:49:17;;;;;;;4.72;1.45;;;12.20;99.90;;;;;;5055066;28;20048;-83
2022/11/06 09:52:11;;;;;;;6.57;1.50;;;12.30;99.90;;;;;;5056364;28;20447;-82
2022/11/06 09:54:57;;;;;;;4.70;1.40;;;12.30;99.90;;;;;;5064112;28;20051;-82
2022/11/06 09:58:03;;;;;;;3.92;1.40;;;12.40;99.90;;;;;;5063720;28;20130;-82
2022/11/06 10:00:32;;;;;;;4.93;1.42;;;12.40;99.90;;;;;;5054571;28;20041;-82
2022/11/06 10:03:10;;;;;;;5.63;1.92;;;12.40;99.90;;;;;;5050415;28;20013;-83
2022/11/06 10:05:40;;;;;;;3.00;0.93;;;12.50;99.90;;;;;;5057370;28;20151;-84
2022/11/06 10:08:30;;;;;;;4.47;1.45;;;12.60;99.90;;;;;;5057463;28;20009;-83
2022/11/06 10:11:15;;;;;;;3.13;1.10;;;12.60;99.90;;;;;;5049681;28;20368;-83
2022/11/06 10:14:02;;;;;;;2.92;0.98;;;12.70;99.90;;;;;;5052309;28;20028;-82
2022/11/06 10:16:51;;;;;;;3.92;1.20;;;12.80;99.90;;;;;;5056353;28;20029;-82
2022/11/06 10:19:43;;;;;;;4.78;1.40;;;13.00;99.90;;;;;;5068170;28;20427;-82
2022/11/06 10:22:29;;;;;;;4.53;1.58;;;13.20;99.90;;;;;;5054298;28;20384;-82
2022/11/06 10:25:01;;;;;;;2.67;1.10;;;13.20;99.90;;;;;;5058271;28;20025;-82
2022/11/06 10:27:41;;;;;;;3.88;1.27;;;13.30;99.90;;;;;;5054680;28;20067;-83
2022/11/06 10:30:12;;;;;;;4.45;1.20;;;13.30;99.90;;;;;;5062596;28;20444;-83
2022/11/06 10:33:09;;;;;;;3.45;1.27;;;13.30;99.90;;;;;;5061700;28;20036;-82
2022/11/06 10:35:57;;;;;;;4.47;1.23;;;13.40;99.90;;;;;;5060353;28;20025;-82
2022/11/06 10:38:49;;;;;;;3.58;1.17;;;13.60;99.90;;;;;;5058728;28;20111;-82
2022/11/06 10:41:26;;;;;;;6.03;1.13;;;14.20;99.90;;;;;;5060493;28;20053;-82
2022/11/06 10:44:20;;;;;;;3.03;1.27;;;14.70;99.90;;;;;;5059662;28;20028;-82
2022/11/06 10:46:52;;;;;;;3.45;1.48;;;14.80;99.90;;;;;;5052651;28;20081;-82
2022/11/06 10:49:46;;;;;;;4.40;1.17;;;14.90;99.90;;;;;;5058598;28;20460;-82
2022/11/06 10:52:26;;;;;;;3.75;1.13;;;15.20;99.90;;;;;;5056948;28;20020;-82
2022/11/06 10:55:25;;;;;;;5.97;1.30;;;15.60;99.90;;;;;;5058331;28;20511;-82
2022/11/06 10:58:07;;;;;;;3.78;1.30;;;16.20;99.90;;;;;;5060906;28;20472;-82
2022/11/06 11:00:34;;;;;;;6.20;1.77;;;16.80;99.90;;;;;;5069268;28;20047;-85
2022/11/06 11:03:06;;;;;;;3.05;1.20;;;17.70;99.90;;;;;;5038620;28;20059;-82
2022/11/06 11:05:41;;;;;;;5.75;1.55;;;18.60;99.90;;;;;;5056171;28;20027;-82
2022/11/06 11:08:30;;;;;;;9.35;1.52;;;19.10;99.90;;;;;;5058715;28;20415;-84
2022/11/06 11:11:05;;;;;;;4.60;1.33;;;18.60;99.90;;;;;;5058655;28;20421;-82
2022/11/06 11:13:32;;;;;;;4.97;1.08;;;17.40;99.90;;;;;;5090740;28;20108;-82
2022/11/06 11:16:00;;;;;;;5.57;1.05;;;16.40;99.90;;;;;;5058613;28;20376;-82
2022/11/06 11:18:30;;;;;;;5.90;1.27;;;15.60;99.90;;;;;;5069627;28;20117;-83
2022/11/06 11:21:19;;;;;;;3.60;0.98;;;15.10;99.90;;;;;;5070529;28;20048;-82
2022/11/06 11:24:03;;;;;;;6.22;1.90;;;14.60;99.90;;;;;;5051969;28;20017;-81
2022/11/06 11:26:30;;;;;;;4.28;1.23;;;14.40;99.90;;;;;;5058249;28;20111;-81
2022/11/06 11:29:14;;;;;;;3.60;1.13;;;14.30;99.90;;;;;;5057932;28;20041;-82
2022/11/06 11:31:48;;;;;;;4.22;1.10;;;14.20;99.90;;;;;;5041708;28;20060;-83
2022/11/06 11:34:21;;;;;;;4.47;1.40;;;14.10;99.90;;;;;;5053835;28;20025;-82
2022/11/06 11:37:27;;;;;;;4.47;1.23;;;14.00;99.90;;;;;;5052840;28;20021;-81
2022/11/06 11:39:55;;;;;;;3.38;1.00;;;13.90;99.90;;;;;;5063576;28;20074;-81
2022/11/06 11:42:31;;;;;;;4.40;1.45;;;14.00;99.90;;;;;;5055354;28;20198;-81
2022/11/06 11:45:08;;;;;;;3.40;1.23;;;14.20;99.90;;;;;;5063557;28;20024;-81
2022/11/06 11:47:36;;;;;;;4.18;1.30;;;14.30;99.90;;;;;;5063817;28;20496;-82
2022/11/06 11:50:28;;;;;;;3.83;1.52;;;14.40;99.90;;;;;;5059939;28;20464;-81
2022/11/06 11:53:11;;;;;;;4.43;1.30;;;14.40;99.90;;;;;;5052850;28;20044;-82
2022/11/06 11:55:42;;;;;;;7.17;1.57;;;14.50;99.90;;;;;;5065467;28;20459;-83
2022/11/06 11:58:19;;;;;;;6.03;1.00;;;14.50;99.90;;;;;;5069155;28;20020;-83
2022/11/06 12:00:54;;;;;;;6.05;1.67;;;14.60;99.90;;;;;;5051314;28;20183;-83
2022/11/06 12:03:23;;;;;;;2.88;1.05;;;14.50;99.90;;;;;;5053381;28;20100;-84
2022/11/06 12:05:50;;;;;;;3.97;1.05;;;14.40;99.90;;;;;;5054588;28;20412;-82
2022/11/06 12:08:30;;;;;;;3.88;1.13;;;14.40;99.90;;;;;;5052867;28;20017;-85
2022/11/06 12:11:02;;;;;;;3.88;0.77;;;14.40;99.90;;;;;;5053203;28;20029;-82
2022/11/06 12:13:28;;;;;;;5.50;1.10;;;14.50;99.90;;;;;;5051715;28;20102;-83
2022/11/06 12:15:59;;;;;;;3.22;0.98;;;14.40;99.90;;;;;;5064611;28;20020;-80
2022/11/06 12:18:31;;;;;;;4.05;1.08;;;14.30;99.90;;;;;;5069219;28;20029;-81
2022/11/06 12:21:23;;;;;;;5.32;1.10;;;14.30;99.90;;;;;;5063310;28;20020;-82
2022/11/06 12:23:55;;;;;;;3.83;0.90;;;14.10;99.90;;;;;;5067647;28;20532;-81
2022/11/06 12:26:42;;;;;;;5.95;1.30;;;14.00;99.90;;;;;;5061234;28;20025;-81
2022/11/06 12:29:32;;;;;;;5.70;1.20;;;13.90;99.90;;;;;;5057815;28;20044;-81
2022/11/06 12:32:13;;;;;;;4.30;0.90;;;13.70;99.90;;;;;;5065291;28;20020;-81
2022/11/06 12:34:47;;;;;;;4.03;0.98;;;13.60;99.90;;;;;;5060178;28;20486;-81
2022/11/06 12:37:34;;;;;;;5.43;1.13;;;13.50;99.90;;;;;;5056900;28;20021;-81
2022/11/06 12:40:24;;;;;;;2.60;0.75;;;13.50;99.90;;;;;;5062045;28;20036;-82
2022/11/06 12:43:10;;;;;;;3.35;1.10;;;13.50;99.90;;;;;;5049516;28;20051;-82
2022/11/06 12:46:03;;;;;;;5.60;1.33;;;13.50;99.90;;;;;;5062748;28;20012;-83
2022/11/06 12:48:34;;;;;;;3.00;0.98;;;13.50;99.90;;;;;;5060051;28;20017;-82
2022/11/06 12:51:24;;;;;;;3.40;0.90;;;13.50;99.90;;;;;;5062068;28;20020;-83
2022/11/06 12:54:36;;;;;;;5.97;1.00;;;13.50;99.90;;;;;;5062531;28;20045;-81
2022/11/06 12:57:23;;;;;;;3.80;0.90;;;13.40;99.90;;;;;;5049472;28;20070;-84
2022/11/06 13:00:12;;;;;;;3.90;1.30;;;13.40;99.90;;;;;;5063622;28;20108;-84
2022/11/06 13:02:49;;;;;;;3.60;0.90;;;13.40;99.90;;;;;;5060289;28;20104;-83
2022/11/06 13:05:34;;;;;;;8.90;1.27;;;13.50;99.90;;;;;;5056123;28;20021;-84
2022/11/06 13:08:18;;;;;;;3.88;0.93;;;13.50;99.90;;;;;;5049339;28;20017;-83
2022/11/06 13:11:01;;;;;;;1.88;0.70;;;13.60;99.90;;;;;;5054605;28;20036;-82
2022/11/06 13:13:37;;;;;;;2.53;0.80;;;13.60;99.90;;;;;;5058525;28;20013;-83
2022/11/06 13:16:29;;;;;;;5.93;1.10;;;13.60;99.90;;;;;;5070120;28;20021;-83
2022/11/06 13:18:59;;;;;;;5.13;1.58;;;13.60;99.90;;;;;;5065629;28;20101;-82
2022/11/06 13:21:53;;;;;;;4.13;1.10;;;13.50;99.90;;;;;;5061323;28;20025;-82
2022/11/06 13:24:39;;;;;;;3.20;0.95;;;13.50;99.90;;;;;;5058449;28;20029;-83
2022/11/06 13:27:25;;;;;;;4.22;0.98;;;13.50;99.90;;;;;;5062256;28;20066;-83
2022/11/06 13:29:58;;;;;;;3.85;1.15;;;13.50;99.90;;;;;;5068342;28;20079;-83
2022/11/06 13:32:28;;;;;;;3.47;0.95;;;13.50;99.90;;;;;;5060283;28;20021;-82
2022/11/06 13:34:55;;;;;;;3.65;0.90;;;13.50;99.90;;;;;;5040797;28;20033;-84